Terminal Aerodrome Forecast
Issued by NWS

Home | Current Version | Previous Version | Text Only | Print | Product List | Glossary On
Versions: 1 2 3 4 5 6 7 8 9 10 11 12
089
FTUS42 KGSP 220534
TAFGMU
TAF
KGMU 220534Z 2206/2306 VRB03KT P6SM BKN250
      TEMPO 2210/2213 4SM BR FEW003
     FM221600 15004KT P6SM BKN150 BKN200
     FM222000 17005KT P6SM OVC020
     FM230000 16008KT 3SM BR VCSH OVC005
     FM230300 18011G18KT 2SM -SHRA BR OVC004 PROB30 2305/2306 1SM TS
      BR OVC003CB=

USA.gov is the U.S. government's official web portal to all federal, state and local government web resources and services.